Time;durP1;ratioP1;P1;durP2;ratioP2;P2;SDS_P1;SDS_P2;PMS_P1;PMS_P2;Temp;Humidity;BMP_temperature;BMP_pressure;BME280_temperature;BME280_humidity;BME280_pressure;Samples;Min_cycle;Max_cycle;Signal;HPM_P1;HPM_P2
2022/06/10 00:01:16;;;;;;;4.80;4.60;;;;;;;12.06;100.00;101610.47;6059018;23;20249;-73
2022/06/10 00:03:42;;;;;;;5.63;5.32;;;;;;;12.40;100.00;101653.72;6024594;23;20098;-72
2022/06/10 00:06:11;;;;;;;4.72;4.53;;;;;;;12.19;100.00;101610.81;6031529;23;20050;-68
2022/06/10 00:08:46;;;;;;;4.70;4.50;;;;;;;12.44;100.00;101646.56;6034425;23;20032;-68
2022/06/10 00:11:14;;;;;;;4.80;4.60;;;;;;;12.24;100.00;101616.72;6026398;23;20414;-68
2022/06/10 00:13:44;;;;;;;4.55;4.35;;;;;;;12.43;100.00;101653.63;6033522;23;20026;-68
2022/06/10 00:16:13;;;;;;;4.82;4.63;;;;;;;12.40;100.00;101656.38;6057806;23;20016;-68
2022/06/10 00:18:41;;;;;;;4.60;4.40;;;;;;;12.17;100.00;101625.81;6028742;23;20038;-73
2022/06/10 00:21:10;;;;;;;4.57;4.38;;;;;;;12.24;100.00;101663.22;6060972;23;20029;-68
2022/06/10 00:23:37;;;;;;;4.60;4.40;;;;;;;12.14;100.00;101655.72;6032978;23;20123;-68
2022/06/10 00:26:05;;;;;;;5.25;5.05;;;;;;;12.03;100.00;101660.63;6056954;23;20826;-68
2022/06/10 00:28:32;;;;;;;4.90;4.70;;;;;;;11.96;100.00;101665.25;6033444;23;20013;-67
2022/06/10 00:30:58;;;;;;;6.30;6.00;;;;;;;11.91;100.00;101662.00;6033030;23;20016;-67
2022/06/10 00:33:25;;;;;;;4.60;4.40;;;;;;;11.87;100.00;101659.53;6064224;23;20018;-67
2022/06/10 00:35:52;;;;;;;6.25;5.95;;;;;;;11.80;100.00;101656.28;6064005;23;20227;-69
2022/06/10 00:38:19;;;;;;;4.57;4.38;;;;;;;11.76;100.00;101663.44;6037672;23;20022;-69
2022/06/10 00:40:52;;;;;;;5.05;4.85;;;;;;;11.74;100.00;101651.28;6050490;23;20058;-69
2022/06/10 00:43:24;;;;;;;5.10;4.90;;;;;;;11.72;100.00;101647.88;6033302;23;20036;-67
2022/06/10 00:46:15;;;;;;;6.32;6.03;;;;;;;11.73;100.00;101653.06;6053842;23;20281;-68
2022/06/10 00:49:01;;;;;;;4.68;4.47;;;;;;;11.70;100.00;101657.59;6029457;23;20017;-68
2022/06/10 00:51:51;;;;;;;4.80;4.60;;;;;;;11.66;100.00;101648.97;6062190;23;20020;-68
2022/06/10 00:54:20;;;;;;;4.70;4.50;;;;;;;11.60;100.00;101654.47;6022495;23;20082;-67
2022/06/10 00:56:54;;;;;;;5.00;4.80;;;;;;;11.55;100.00;101659.94;6060814;23;20341;-67
2022/06/10 00:59:29;;;;;;;4.50;4.30;;;;;;;11.51;100.00;101658.34;6027026;23;20097;-68
2022/06/10 01:01:59;;;;;;;6.68;6.38;;;;;;;11.46;100.00;101659.44;6049918;23;20051;-67
2022/06/10 01:04:27;;;;;;;4.70;4.50;;;;;;;11.14;100.00;101607.25;6011972;23;20046;-73
2022/06/10 01:06:56;;;;;;;6.05;5.75;;;;;;;11.36;100.00;101654.56;6020035;23;20017;-70
2022/06/10 01:09:24;;;;;;;4.80;4.60;;;;;;;11.30;100.00;101653.94;6053682;23;20264;-72
2022/06/10 01:12:02;;;;;;;6.05;5.75;;;;;;;11.26;100.00;101655.84;6017635;23;20068;-68
2022/06/10 01:15:00;;;;;;;4.90;4.70;;;;;;;11.20;100.00;101665.75;6047454;23;20018;-68
2022/06/10 01:17:49;;;;;;;4.80;4.60;;;;;;;11.16;100.00;101659.75;6019861;23;20058;-68
2022/06/10 01:20:29;;;;;;;4.90;4.70;;;;;;;11.10;100.00;101657.38;6051910;23;20014;-67
2022/06/10 01:23:33;;;;;;;6.45;6.15;;;;;;;11.07;100.00;101662.75;6020023;23;20057;-67
2022/06/10 01:26:23;;;;;;;6.45;6.15;;;;;;;11.02;100.00;101660.28;6038368;23;20037;-67
2022/06/10 01:29:01;;;;;;;5.72;5.47;;;;;;;11.00;100.00;101656.84;6027165;23;20448;-67
2022/06/10 01:31:39;;;;;;;4.70;4.50;;;;;;;10.96;100.00;101655.28;6051756;23;20372;-70
2022/06/10 01:34:28;;;;;;;4.90;4.70;;;;;;;10.91;100.00;101659.84;6028697;23;20113;-67
2022/06/10 01:37:18;;;;;;;6.88;6.57;;;;;;;10.85;100.00;101660.09;6057473;23;20455;-67
2022/06/10 01:40:10;;;;;;;4.70;4.50;;;;;;;10.81;100.00;101669.00;6026178;23;20007;-64
2022/06/10 01:42:45;;;;;;;4.82;4.63;;;;;;;10.76;100.00;101659.53;6051997;23;20078;-67
2022/06/10 01:45:15;;;;;;;4.70;4.50;;;;;;;10.73;100.00;101679.78;6023192;23;20608;-68
2022/06/10 01:47:54;;;;;;;4.60;4.40;;;;;;;10.69;100.00;101657.19;6048682;23;20417;-68
2022/06/10 01:50:29;;;;;;;4.70;4.50;;;;;;;10.55;100.00;101637.53;6017455;23;20022;-68
2022/06/10 01:53:09;;;;;;;6.45;6.15;;;;;;;10.68;100.00;101661.56;6052825;23;20038;-68
2022/06/10 01:55:48;;;;;;;4.20;4.00;;;;;;;10.45;100.00;101640.56;6024091;23;20120;-67
2022/06/10 01:58:22;;;;;;;4.50;4.30;;;;;;;10.66;100.00;101663.38;6047075;23;20025;-68
2022/06/10 02:00:55;;;;;;;4.90;4.70;;;;;;;10.60;100.00;101671.50;6026103;23;20672;-67
2022/06/10 02:03:34;;;;;;;4.75;4.55;;;;;;;10.55;100.00;101671.66;6026061;23;20068;-67
2022/06/10 02:06:10;;;;;;;6.25;5.95;;;;;;;10.54;100.00;101669.09;6020329;23;20098;-68
2022/06/10 02:08:45;;;;;;;4.75;4.45;;;;;;;10.28;100.00;101634.09;6050148;23;20030;-70
2022/06/10 02:11:19;;;;;;;4.57;4.38;;;;;;;10.49;100.00;101677.13;5990608;23;20527;-68
2022/06/10 02:14:01;;;;;;;4.40;4.20;;;;;;;10.47;100.00;101691.25;6057213;23;20154;-68
2022/06/10 02:16:31;;;;;;;4.40;4.20;;;;;;;10.44;100.00;101680.84;6031335;23;20437;-66
2022/06/10 02:19:28;;;;;;;6.03;5.75;;;;;;;10.42;100.00;101680.03;6048696;23;20292;-67
2022/06/10 02:22:03;;;;;;;6.35;6.05;;;;;;;10.38;100.00;101684.53;6024431;23;20416;-69
2022/06/10 02:24:41;;;;;;;4.97;4.78;;;;;;;10.19;100.00;101663.31;6026024;23;20136;-68
2022/06/10 02:27:14;;;;;;;4.60;4.40;;;;;;;10.22;100.00;101678.94;6015526;23;20447;-67
2022/06/10 02:30:06;;;;;;;4.45;4.25;;;;;;;10.28;100.00;101688.34;6031807;23;20156;-67
2022/06/10 02:32:34;;;;;;;4.90;4.70;;;;;;;10.15;100.00;101680.06;6020901;23;20277;-67
2022/06/10 02:35:01;;;;;;;6.35;6.05;;;;;;;10.17;100.00;101684.34;6044777;23;20018;-70
2022/06/10 02:37:43;;;;;;;4.72;4.53;;;;;;;10.24;100.00;101698.09;6034404;23;20022;-70
2022/06/10 02:40:21;;;;;;;4.50;4.30;;;;;;;10.06;100.00;101670.72;6046644;23;20116;-67
2022/06/10 02:42:59;;;;;;;5.40;5.18;;;;;;;9.71;100.00;101619.50;6048344;23;20006;-67
2022/06/10 02:46:04;;;;;;;4.80;4.60;;;;;;;10.17;100.00;101697.47;6028806;23;20393;-73
2022/06/10 02:49:00;;;;;;;4.85;4.65;;;;;;;10.15;100.00;101699.28;6038496;23;20030;-72
2022/06/10 02:51:28;;;;;;;4.60;4.40;;;;;;;10.15;100.00;101701.06;6014695;23;20030;-72
2022/06/10 02:53:56;;;;;;;6.40;6.10;;;;;;;10.11;100.00;101707.31;6019671;23;20074;-70
2022/06/10 02:56:26;;;;;;;4.70;4.50;;;;;;;9.95;100.00;101686.84;6045454;23;20452;-73
2022/06/10 03:01:49;;;;;;;4.32;4.13;;;;;;;10.04;100.00;101722.38;6045261;23;20206;-67
2022/06/10 03:04:21;;;;;;;4.30;4.10;;;;;;;10.01;100.00;101714.63;6019880;23;20090;-67
2022/06/10 03:07:03;;;;;;;4.80;4.60;;;;;;;8.85;100.00;101515.78;6051973;23;20626;-69
2022/06/10 03:09:56;;;;;;;4.50;4.30;;;;;;;9.97;100.00;101706.00;6018833;23;20030;-70
2022/06/10 03:12:26;;;;;;;;;;;;;;;9.96;100.00;101709.56;6048006;23;20018;-68
2022/06/10 03:15:18;;;;;;;6.07;5.78;;;;;;;9.95;100.00;101707.81;6029915;23;19922;-68
2022/06/10 03:17:51;;;;;;;4.47;4.28;;;;;;;9.94;100.00;101711.38;6045388;23;20017;-67
2022/06/10 03:20:23;;;;;;;4.70;4.50;;;;;;;9.61;100.00;101647.78;6017580;23;20011;-68
2022/06/10 03:23:02;;;;;;;6.38;6.00;;;;;;;9.99;100.00;101719.06;6050715;23;20037;-67
2022/06/10 03:26:04;;;;;;;4.50;4.30;;;;;;;10.02;100.00;101726.81;6019970;23;20420;-70
2022/06/10 03:28:37;;;;;;;4.60;4.40;;;;;;;10.03;100.00;101723.31;6032504;23;20486;-69
2022/06/10 03:31:13;;;;;;;5.10;4.90;;;;;;;10.10;100.00;101726.56;6032423;23;20023;-73
2022/06/10 03:33:53;;;;;;;5.00;4.80;;;;;;;10.15;100.00;101737.78;6046377;23;20156;-69
2022/06/10 03:36:23;;;;;;;4.50;4.30;;;;;;;10.18;100.00;101735.91;6016056;23;20022;-67
2022/06/10 03:38:52;;;;;;;5.78;5.53;;;;;;;9.97;100.00;101695.53;6027044;23;20317;-70
2022/06/10 03:41:22;;;;;;;4.60;4.40;;;;;;;10.24;100.00;101734.81;6021757;23;20111;-67
2022/06/10 03:43:51;;;;;;;5.68;5.43;;;;;;;9.37;100.00;101587.41;6024284;23;20099;-67
2022/06/10 03:46:20;;;;;;;4.60;4.40;;;;;;;10.38;100.00;101742.25;6027558;23;20073;-67
2022/06/10 03:48:48;;;;;;;4.85;4.65;;;;;;;10.42;100.00;101729.91;6044999;23;20354;-72
2022/06/10 03:51:17;;;;;;;4.50;4.30;;;;;;;10.37;100.00;101701.19;6027161;23;20051;-72
2022/06/10 03:53:44;;;;;;;4.75;4.55;;;;;;;10.66;100.00;101736.88;6046285;23;20030;-67
2022/06/10 03:56:12;;;;;;;4.82;4.63;;;;;;;10.46;100.00;101694.75;6022289;23;20026;-68
2022/06/10 03:58:38;;;;;;;4.65;4.45;;;;;;;10.85;100.00;101741.50;6052815;23;20627;-67
2022/06/10 04:01:06;;;;;;;4.70;4.50;;;;;;;10.96;100.00;101753.31;6020270;23;20443;-71
2022/06/10 04:03:32;;;;;;;4.60;4.40;;;;;;;10.85;100.00;101723.97;6029896;23;20039;-73
2022/06/10 04:05:59;;;;;;;6.15;5.85;;;;;;;11.09;100.00;101730.06;6046269;23;20031;-71
2022/06/10 04:08:46;;;;;;;5.05;4.82;;;;;;;11.51;100.00;101744.25;6048277;23;20084;-74
2022/06/10 04:11:12;;;;;;;4.70;4.50;;;;;;;12.43;100.00;101750.13;6049448;23;20030;-67
2022/06/10 04:13:39;;;;;;;4.82;4.63;;;;;;;13.21;100.00;101724.69;6027847;23;20026;-67
2022/06/10 04:16:05;;;;;;;5.57;5.38;;;;;;;14.06;100.00;101716.22;6050382;23;20011;-67
2022/06/10 04:18:32;;;;;;;4.70;4.50;;;;;;;14.88;100.00;101740.16;6019748;23;20026;-73
2022/06/10 04:20:58;;;;;;;5.45;5.15;;;;;;;15.55;100.00;101745.31;6053297;23;20401;-67
2022/06/10 04:23:25;;;;;;;4.90;4.70;;;;;;;16.17;97.90;101750.59;6019857;23;20035;-69
2022/06/10 04:25:54;;;;;;;6.68;6.38;;;;;;;16.47;90.66;101715.25;6036088;23;20078;-70
2022/06/10 04:28:20;;;;;;;5.40;5.10;;;;;;;17.09;86.72;101752.97;6024659;23;20025;-68
2022/06/10 04:30:49;;;;;;;5.53;5.22;;;;;;;17.62;82.76;101754.94;6052138;23;20534;-70
2022/06/10 04:33:16;;;;;;;5.10;4.90;;;;;;;17.99;78.96;101756.06;6053459;23;20022;-67
2022/06/10 04:35:44;;;;;;;5.40;5.20;;;;;;;17.71;76.36;101633.06;6043932;23;20023;-68
2022/06/10 04:38:13;;;;;;;5.75;5.45;;;;;;;18.78;74.27;101756.03;5995971;23;20461;-68
2022/06/10 04:40:41;;;;;;;5.50;5.25;;;;;;;19.23;70.92;101748.44;6027427;23;20050;-68
2022/06/10 04:43:08;;;;;;;6.07;5.78;;;;;;;19.59;70.11;101720.94;5992466;23;20465;-73
2022/06/10 04:45:39;;;;;;;5.90;5.60;;;;;;;19.70;66.12;101752.09;6001707;23;20523;-72
2022/06/10 04:48:05;;;;;;;6.40;6.10;;;;;;;20.27;66.19;101751.38;6026814;23;20369;-74
2022/06/10 04:50:32;;;;;;;5.70;5.40;;;;;;;19.83;62.99;101725.44;6023887;23;20456;-73
2022/06/10 04:52:59;;;;;;;7.47;6.97;;;;;;;19.62;63.00;101757.13;5999306;23;20501;-74
2022/06/10 04:55:27;;;;;;;6.15;5.85;;;;;;;18.45;68.07;101731.69;6028265;23;20125;-69
2022/06/10 04:57:54;;;;;;;6.78;6.47;;;;;;;18.18;71.38;101761.00;5998674;23;20031;-68
2022/06/10 05:00:28;;;;;;;7.30;5.25;;;;;;;18.70;72.44;101722.00;6031445;23;20030;-68
2022/06/10 05:02:55;;;;;;;7.32;7.03;;;;;;;19.07;69.68;101757.53;6000997;23;20098;-68
2022/06/10 05:05:22;;;;;;;6.00;5.70;;;;;;;19.32;68.22;101756.63;6038136;23;20015;-68
2022/06/10 05:07:48;;;;;;;6.18;5.88;;;;;;;19.41;67.72;101749.78;5997839;23;20457;-68
2022/06/10 05:10:16;;;;;;;5.50;5.30;;;;;;;19.03;68.29;101749.88;6033448;23;20018;-68
2022/06/10 05:12:44;;;;;;;5.80;5.50;;;;;;;18.56;69.71;101709.66;6004805;23;20274;-69
2022/06/10 05:15:13;;;;;;;5.80;5.50;;;;;;;18.43;70.12;101735.41;6015701;23;20366;-68
2022/06/10 05:17:39;;;;;;;5.43;5.22;;;;;;;18.13;71.31;101756.00;5998815;23;20285;-69
2022/06/10 05:20:07;;;;;;;5.90;5.60;;;;;;;17.93;73.95;101751.16;5999483;23;20021;-68
2022/06/10 05:22:34;;;;;;;6.25;5.78;;;;;;;17.66;74.70;101724.59;6023008;23;20034;-70
2022/06/10 05:25:00;;;;;;;7.00;6.70;;;;;;;17.06;76.09;101739.03;6022180;23;20108;-71
2022/06/10 05:27:26;;;;;;;5.72;5.43;;;;;;;16.86;78.66;101754.41;6003108;23;20420;-68
2022/06/10 05:29:53;;;;;;;7.15;6.85;;;;;;;16.67;79.71;101753.81;6023396;23;20574;-72
2022/06/10 05:32:20;;;;;;;5.90;5.50;;;;;;;16.40;81.43;101746.59;5997237;23;20019;-72
2022/06/10 05:34:46;;;;;;;5.60;5.30;;;;;;;15.17;81.90;101576.41;6029300;23;20391;-67
2022/06/10 05:37:20;;;;;;;5.60;5.30;;;;;;;15.84;85.40;101764.00;6044920;23;20074;-69
2022/06/10 05:39:47;;;;;;;5.70;5.47;;;;;;;15.68;87.59;101769.28;6021167;23;20034;-67
2022/06/10 05:42:14;;;;;;;5.80;5.53;;;;;;;15.62;88.63;101780.22;6035152;23;20030;-73
2022/06/10 05:44:50;;;;;;;5.40;5.20;;;;;;;15.14;91.76;101751.94;6025008;23;20507;-67
2022/06/10 05:47:29;;;;;;;5.80;5.50;;;;;;;15.24;93.14;101776.09;6025927;23;20022;-67
2022/06/10 05:49:59;;;;;;;5.75;5.45;;;;;;;14.99;95.14;101773.91;6051060;23;20025;-69
2022/06/10 05:52:27;;;;;;;5.70;5.40;;;;;;;15.02;96.20;101760.56;6056478;23;20439;-67
2022/06/10 05:54:57;;;;;;;7.13;6.82;;;;;;;15.05;96.70;101773.59;6047160;23;20034;-70
2022/06/10 05:57:24;;;;;;;6.10;5.80;;;;;;;13.92;96.65;101579.69;6030419;23;20093;-67
2022/06/10 05:59:52;;;;;;;6.53;6.22;;;;;;;14.82;98.06;101713.19;6046837;23;20511;-68
2022/06/10 06:02:20;;;;;;;5.50;5.30;;;;;;;15.15;96.81;101780.13;6016709;23;20052;-68
2022/06/10 06:04:48;;;;;;;5.20;5.00;;;;;;;15.05;95.98;101752.44;6058023;23;20110;-69
2022/06/10 06:07:21;;;;;;;5.80;5.50;;;;;;;15.19;96.29;101782.56;6023326;23;20030;-77
2022/06/10 06:09:48;;;;;;;5.70;5.45;;;;;;;15.31;96.97;101785.41;6053639;23;20109;-75
2022/06/10 06:12:15;;;;;;;5.50;5.30;;;;;;;15.22;97.50;101758.63;6020410;23;20085;-69
2022/06/10 06:14:41;;;;;;;5.38;5.18;;;;;;;15.46;96.04;101788.16;6023500;23;20383;-68
2022/06/10 06:17:10;;;;;;;5.95;5.65;;;;;;;15.64;95.10;101791.56;6019464;23;20019;-69
2022/06/10 06:19:36;;;;;;;5.28;5.07;;;;;;;15.81;93.12;101794.13;6050985;23;20023;-69
2022/06/10 06:22:04;;;;;;;6.90;6.60;;;;;;;15.76;92.29;101796.22;6022186;23;20294;-69
2022/06/10 06:24:36;;;;;;;5.82;5.53;;;;;;;15.86;91.63;101796.53;6063756;23;20010;-75
2022/06/10 06:27:04;;;;;;;7.00;6.65;;;;;;;15.98;92.74;101797.66;6032868;23;20026;-74
2022/06/10 06:29:30;;;;;;;5.57;5.38;;;;;;;16.05;91.82;101793.69;6052033;23;20026;-75
2022/06/10 06:31:57;;;;;;;6.63;6.32;;;;;;;16.09;90.60;101782.81;6020521;23;20067;-74
2022/06/10 06:34:25;;;;;;;5.30;5.10;;;;;;;16.12;90.12;101773.84;6058166;23;20349;-69
2022/06/10 06:36:54;;;;;;;6.68;6.38;;;;;;;16.30;89.56;101793.97;6046156;23;20064;-70
2022/06/10 06:39:23;;;;;;;5.03;4.82;;;;;;;16.52;87.92;101809.44;6055347;23;20673;-73
2022/06/10 06:41:52;;;;;;;6.15;5.85;;;;;;;16.85;86.55;101792.47;6025841;23;20031;-69
2022/06/10 06:44:19;;;;;;;6.43;6.13;;;;;;;17.23;85.59;101797.19;6054173;23;20027;-73
2022/06/10 06:46:46;;;;;;;7.00;6.45;;;;;;;17.43;83.69;101803.91;6033424;23;20018;-69
2022/06/10 06:49:20;;;;;;;5.40;5.20;;;;;;;17.61;82.48;101795.72;5928090;23;20022;-67
2022/06/10 06:51:47;;;;;;;5.70;5.40;;;;;;;17.51;80.47;101768.91;6021493;23;20050;-72
2022/06/10 06:54:14;;;;;;;6.65;6.28;;;;;;;17.70;81.33;101789.81;6055867;23;20049;-67
2022/06/10 06:56:40;;;;;;;5.38;5.18;;;;;;;17.65;81.16;101808.69;6030489;23;20479;-67
2022/06/10 06:59:07;;;;;;;5.60;5.40;;;;;;;17.52;81.55;101807.78;6047532;23;20016;-70
2022/06/10 07:01:35;;;;;;;5.80;5.50;;;;;;;17.80;81.91;101806.88;6023234;23;20097;-68
2022/06/10 07:04:04;;;;;;;6.90;6.60;;;;;;;17.72;79.91;101793.22;6055798;23;20342;-70
2022/06/10 07:06:32;;;;;;;5.70;5.40;;;;;;;17.99;80.17;101816.31;6026711;23;20106;-67
2022/06/10 07:08:58;;;;;;;5.38;5.15;;;;;;;17.70;78.21;101771.22;6051135;23;20105;-67
2022/06/10 07:11:25;;;;;;;5.60;5.35;;;;;;;17.83;78.83;101792.53;6027907;23;20167;-70
2022/06/10 07:13:52;;;;;;;6.65;6.35;;;;;;;17.73;78.77;101773.69;6055113;23;20273;-68
2022/06/10 07:16:19;;;;;;;5.93;5.63;;;;;;;17.94;79.10;101814.81;6031931;23;20014;-68
2022/06/10 07:18:45;;;;;;;5.47;5.28;;;;;;;17.89;78.70;101816.91;6054577;23;20102;-67
2022/06/10 07:21:12;;;;;;;5.28;5.03;;;;;;;18.01;80.13;101817.91;6053556;23;20659;-68
2022/06/10 07:23:38;;;;;;;5.47;5.28;;;;;;;18.26;77.68;101819.81;6021308;23;20027;-68
2022/06/10 07:26:05;;;;;;;6.57;6.28;;;;;;;18.38;76.92;101782.72;6037274;23;20026;-68
2022/06/10 07:28:31;;;;;;;6.00;5.70;;;;;;;18.95;75.54;101826.72;6026255;23;20069;-68
2022/06/10 07:30:58;;;;;;;7.15;6.85;;;;;;;19.27;74.50;101821.78;6052486;23;20282;-68
2022/06/10 07:33:25;;;;;;;5.40;5.20;;;;;;;19.70;73.07;101819.56;6053209;23;20092;-69
2022/06/10 07:35:52;;;;;;;7.07;6.78;;;;;;;18.80;69.97;101639.78;6048015;23;20311;-69
2022/06/10 07:38:18;;;;;;;5.90;5.60;;;;;;;19.82;67.93;101804.50;6030491;23;20024;-68
2022/06/10 07:43:38;;;;;;;;;;;;;;;20.56;67.28;101827.44;6052088;23;20045;-68
2022/06/10 07:46:06;;;;;;;6.10;5.80;;;;;;;20.77;65.24;101788.47;6025044;23;19914;-69
2022/06/10 07:48:33;;;;;;;5.90;5.60;;;;;;;20.99;63.06;101826.78;6052410;23;20587;-68
2022/06/10 07:50:59;;;;;;;6.63;6.32;;;;;;;20.54;64.36;101779.53;6020574;23;20027;-69
2022/06/10 07:53:26;;;;;;;5.80;5.50;;;;;;;20.73;62.61;101789.69;6041360;23;20028;-68
2022/06/10 07:55:52;;;;;;;7.30;6.95;;;;;;;21.16;60.90;101782.78;6026385;23;20480;-68
2022/06/10 07:58:19;;;;;;;5.80;5.50;;;;;;;20.71;61.03;101661.75;6045216;23;20032;-68
2022/06/10 08:00:46;;;;;;;5.65;5.43;;;;;;;21.56;59.20;101833.84;6025814;23;20042;-72
2022/06/10 08:03:13;;;;;;;5.90;5.60;;;;;;;21.64;61.98;101823.38;6014985;23;20298;-74
2022/06/10 08:05:41;;;;;;;5.60;5.40;;;;;;;22.06;60.22;101820.81;6058605;23;20029;-72
2022/06/10 08:08:12;;;;;;;5.88;5.60;;;;;;;22.35;59.16;101827.41;6033883;23;20079;-73
2022/06/10 08:10:38;;;;;;;5.72;5.43;;;;;;;22.45;58.08;101826.53;6025877;23;20054;-74
2022/06/10 08:13:05;;;;;;;5.40;5.20;;;;;;;22.87;56.40;101822.97;6059121;23;20692;-72
2022/06/10 08:15:33;;;;;;;6.80;6.40;;;;;;;22.99;55.66;101829.94;6031442;23;20185;-70
2022/06/10 08:18:01;;;;;;;7.63;7.22;;;;;;;22.95;54.55;101799.03;6049607;23;20455;-71
2022/06/10 08:23:34;;;;;;;5.68;5.45;;;;;;;23.28;55.06;101821.22;6053248;23;20083;-73
2022/06/10 08:26:06;;;;;;;6.72;6.43;;;;;;;23.69;53.81;101832.72;6026317;23;20103;-74
2022/06/10 08:28:35;;;;;;;6.22;5.82;;;;;;;23.52;51.86;101833.41;6059611;23;20084;-72
2022/06/10 08:31:02;;;;;;;6.70;6.40;;;;;;;23.71;53.11;101809.31;6026890;23;20321;-71
2022/06/10 08:33:29;;;;;;;5.60;5.40;;;;;;;23.94;52.55;101825.19;6058986;23;20499;-71
2022/06/10 08:35:57;;;;;;;7.22;6.93;;;;;;;24.06;50.88;101827.59;6028540;23;20033;-74
2022/06/10 08:38:23;;;;;;;5.90;5.60;;;;;;;23.55;53.52;101825.09;6064278;23;20085;-74
2022/06/10 08:41:00;;;;;;;6.50;6.20;;;;;;;23.79;53.44;101830.94;6024280;23;20025;-71
2022/06/10 08:43:33;;;;;;;5.80;5.50;;;;;;;22.94;53.46;101824.13;6063843;23;20108;-72
2022/06/10 08:46:12;;;;;;;8.45;7.95;;;;;;;22.90;54.28;101820.03;6039322;23;20266;-75
2022/06/10 08:49:11;;;;;;;5.78;5.50;;;;;;;23.04;54.49;101826.91;6063340;23;20014;-72
2022/06/10 08:51:44;;;;;;;6.10;5.80;;;;;;;22.26;54.11;101706.03;6035849;23;20093;-73
2022/06/10 08:54:13;;;;;;;5.57;5.28;;;;;;;21.75;54.20;101779.78;6044587;23;20625;-72
2022/06/10 08:56:45;;;;;;;6.15;5.53;;;;;;;21.71;55.79;101799.72;6027141;23;20059;-70
2022/06/10 08:59:20;;;;;;;5.50;5.30;;;;;;;21.26;56.78;101826.44;6056417;23;20046;-72
2022/06/10 09:02:00;;;;;;;5.93;5.63;;;;;;;21.25;59.13;101838.94;6035471;23;20035;-75
2022/06/10 09:04:30;;;;;;;5.60;5.40;;;;;;;21.23;60.64;101837.38;6063571;23;20022;-74
2022/06/10 09:07:01;;;;;;;6.85;6.55;;;;;;;21.14;59.10;101848.78;6026035;23;20440;-74
2022/06/10 09:09:30;;;;;;;5.90;5.60;;;;;;;20.86;60.76;101824.25;6048654;23;20081;-73
2022/06/10 09:12:07;;;;;;;5.82;5.53;;;;;;;21.28;62.08;101852.03;6031158;23;20496;-73
2022/06/10 09:14:35;;;;;;;5.50;5.30;;;;;;;21.38;60.64;101820.13;6055273;23;20627;-74
2022/06/10 09:17:09;;;;;;;7.25;6.95;;;;;;;20.92;62.31;101853.13;6052306;23;20053;-73
2022/06/10 09:20:09;;;;;;;5.63;5.43;;;;;;;21.09;63.08;101851.81;6056128;23;20086;-70
2022/06/10 09:22:46;;;;;;;5.82;5.53;;;;;;;20.67;63.01;101831.00;6007773;23;20035;-74
2022/06/10 09:25:22;;;;;;;5.70;5.40;;;;;;;20.89;64.20;101858.72;6049009;23;20021;-73
2022/06/10 09:27:53;;;;;;;6.30;6.00;;;;;;;20.72;64.08;101818.16;6026762;23;20099;-75
2022/06/10 09:30:24;;;;;;;5.40;5.20;;;;;;;21.16;63.32;101844.16;6052513;23;20101;-71
2022/06/10 09:33:11;;;;;;;6.85;6.55;;;;;;;21.47;62.68;101840.78;6022655;23;20046;-69
2022/06/10 09:36:03;;;;;;;5.60;5.40;;;;;;;21.65;62.08;101826.91;6051113;23;20030;-72
2022/06/10 09:38:36;;;;;;;5.57;5.30;;;;;;;22.09;61.47;101836.63;6025461;23;20055;-70
2022/06/10 09:41:11;;;;;;;6.93;6.57;;;;;;;22.48;58.03;101838.78;6044196;23;20074;-74
2022/06/10 09:43:58;;;;;;;5.68;5.47;;;;;;;22.73;57.39;101824.16;6027755;23;20031;-73
2022/06/10 09:46:26;;;;;;;5.57;5.38;;;;;;;22.82;56.91;101822.53;6057412;23;20042;-73
2022/06/10 09:49:11;;;;;;;7.28;6.93;;;;;;;22.52;57.70;101824.16;6023209;23;20006;-76
2022/06/10 09:52:01;;;;;;;5.60;5.40;;;;;;;22.55;58.03;101837.31;6051963;23;20143;-73
2022/06/10 09:54:46;;;;;;;6.18;5.88;;;;;;;22.60;57.78;101821.69;5959487;23;20082;-70
2022/06/10 09:57:32;;;;;;;6.28;5.88;;;;;;;22.65;57.34;101821.28;6057234;23;20014;-73
2022/06/10 10:00:18;;;;;;;7.13;6.82;;;;;;;22.70;57.31;101816.41;6027501;23;20015;-71
2022/06/10 10:02:44;;;;;;;6.40;6.10;;;;;;;22.86;54.54;101818.59;6048391;23;20022;-74
2022/06/10 10:05:29;;;;;;;5.50;5.30;;;;;;;23.24;54.98;101817.94;6025290;23;20085;-71
2022/06/10 10:08:34;;;;;;;6.88;6.57;;;;;;;23.26;53.91;101815.13;6052811;23;20049;-72
2022/06/10 10:11:14;;;;;;;7.35;6.95;;;;;;;23.39;53.92;101815.72;6020763;23;20055;-73
2022/06/10 10:14:11;;;;;;;5.80;5.50;;;;;;;23.71;54.07;101809.31;6049565;23;20026;-74
2022/06/10 10:16:52;;;;;;;6.43;6.03;;;;;;;23.87;53.03;101798.94;6032971;23;20027;-72
2022/06/10 10:19:38;;;;;;;5.70;5.45;;;;;;;23.93;50.45;101808.22;6030443;23;20028;-71
2022/06/10 10:22:43;;;;;;;6.75;6.45;;;;;;;24.04;50.89;101805.44;6021259;23;20319;-74
2022/06/10 10:25:21;;;;;;;5.90;5.60;;;;;;;24.08;51.34;101789.91;6050122;23;20147;-73
2022/06/10 10:27:48;;;;;;;5.88;5.63;;;;;;;24.24;51.77;101767.88;6031044;23;20046;-74
2022/06/10 10:30:31;;;;;;;5.75;5.45;;;;;;;24.69;49.84;101805.63;6055783;23;20321;-74
2022/06/10 10:33:04;;;;;;;7.53;7.15;;;;;;;24.35;50.70;101796.38;6021657;23;20038;-72
2022/06/10 10:35:41;;;;;;;5.63;5.38;;;;;;;24.24;52.97;101800.91;6056091;23;20058;-73
2022/06/10 10:38:14;;;;;;;6.00;5.70;;;;;;;24.29;51.71;101787.03;6018697;23;20055;-75
2022/06/10 10:40:44;;;;;;;5.93;5.63;;;;;;;24.28;50.80;101796.94;6052239;23;20515;-71
2022/06/10 10:43:26;;;;;;;6.00;5.70;;;;;;;24.59;49.69;101790.56;6022554;23;20462;-70
2022/06/10 10:46:06;;;;;;;7.20;6.90;;;;;;;24.36;49.24;101781.97;6051187;23;20042;-76
2022/06/10 10:48:43;;;;;;;5.68;5.47;;;;;;;24.46;51.01;101783.63;6023957;23;20022;-71
2022/06/10 10:51:10;;;;;;;6.05;5.75;;;;;;;24.40;50.51;101788.75;6050616;23;20111;-68
2022/06/10 10:54:06;;;;;;;7.03;6.72;;;;;;;24.81;47.48;101757.97;6019069;23;20447;-71
2022/06/10 10:56:37;;;;;;;5.90;5.60;;;;;;;24.48;48.70;101745.94;6052195;23;20321;-69
2022/06/10 10:59:05;;;;;;;7.07;6.78;;;;;;;24.54;50.18;101784.78;6024188;23;20398;-69
2022/06/10 11:01:45;;;;;;;5.63;5.43;;;;;;;24.67;48.44;101783.47;6054964;23;20377;-72
2022/06/10 11:04:16;;;;;;;5.65;5.40;;;;;;;25.08;48.54;101778.66;6020328;23;20019;-72
2022/06/10 11:06:43;;;;;;;5.60;5.40;;;;;;;24.81;49.42;101784.81;6049117;23;20019;-74
2022/06/10 11:09:23;;;;;;;5.60;5.30;;;;;;;24.51;50.01;101637.47;6025298;23;20022;-73
2022/06/10 11:11:52;;;;;;;6.35;6.05;;;;;;;25.43;48.48;101789.66;6043119;23;20380;-73
2022/06/10 11:14:29;;;;;;;6.00;5.70;;;;;;;25.80;47.72;101784.16;6021893;23;20524;-67
2022/06/10 11:17:16;;;;;;;6.60;6.30;;;;;;;25.72;48.04;101776.03;6051866;23;20026;-73
2022/06/10 11:19:52;;;;;;;6.30;6.00;;;;;;;25.53;46.34;101781.53;5999839;23;20021;-74
2022/06/10 11:22:31;;;;;;;6.13;5.82;;;;;;;25.78;47.86;101783.47;6042311;23;20128;-68
2022/06/10 11:25:03;;;;;;;6.70;6.40;;;;;;;25.98;45.34;101786.88;6053384;23;20225;-74
2022/06/10 11:27:33;;;;;;;5.80;5.50;;;;;;;25.70;46.09;101783.41;6059851;23;20024;-68
2022/06/10 11:30:00;;;;;;;7.28;6.95;;;;;;;25.92;46.48;101781.25;6024017;23;20125;-68
2022/06/10 11:32:40;;;;;;;5.90;5.60;;;;;;;25.91;45.32;101768.81;6025644;23;20026;-73
2022/06/10 11:35:24;;;;;;;6.18;5.88;;;;;;;25.72;45.10;101765.28;6047010;23;20093;-72
2022/06/10 11:38:24;;;;;;;6.88;6.57;;;;;;;25.87;46.06;101762.88;6010262;23;20023;-71
2022/06/10 11:40:57;;;;;;;6.82;6.53;;;;;;;25.79;44.71;101744.81;6043011;23;20077;-74
2022/06/10 11:43:28;;;;;;;7.38;6.88;;;;;;;26.21;44.00;101754.09;6022272;23;20533;-75
2022/06/10 11:46:02;;;;;;;7.17;6.87;;;;;;;26.12;44.87;101761.28;6021165;23;20157;-72
2022/06/10 11:48:32;;;;;;;5.55;5.35;;;;;;;26.23;46.43;101761.00;6045990;23;20535;-73
2022/06/10 11:51:04;;;;;;;6.90;6.60;;;;;;;25.36;45.67;101764.38;6018981;23;20015;-72
2022/06/10 11:53:38;;;;;;;;;;;;;;;25.76;46.14;101763.97;6054215;23;20026;-72
2022/06/10 12:01:48;;;;;;;5.75;5.50;;;;;;;26.71;43.57;101749.91;6023949;23;20631;-69
2022/06/10 12:04:22;;;;;;;6.22;5.93;;;;;;;26.47;41.86;101732.56;6053615;23;20058;-70
2022/06/10 12:07:04;;;;;;;6.30;6.00;;;;;;;27.06;42.07;101744.34;6021659;23;20073;-70